createdAt,value
2023-01-19T00:00:10.694Z,-2.20
2023-01-19T00:01:11.923Z,-2.32
2023-01-19T00:02:10.708Z,-2.23
2023-01-19T00:03:10.650Z,-2.35
2023-01-19T00:04:10.639Z,-2.42
2023-01-19T00:05:10.605Z,-2.45
2023-01-19T00:06:10.659Z,-2.37
2023-01-19T00:07:10.615Z,-2.45
2023-01-19T00:08:10.562Z,-2.45
2023-01-19T00:09:10.558Z,-2.48
2023-01-19T00:10:10.827Z,-2.49
2023-01-19T00:11:10.575Z,-2.49
2023-01-19T00:12:10.585Z,-2.64
2023-01-19T00:13:10.545Z,-2.58
2023-01-19T00:14:10.542Z,-2.61
2023-01-19T00:15:10.499Z,-2.70
2023-01-19T00:16:10.592Z,-2.71
2023-01-19T00:17:11.479Z,-2.58
2023-01-19T00:18:11.124Z,-2.74
2023-01-19T00:19:11.474Z,-2.70
2023-01-19T00:20:10.471Z,-2.68
2023-01-19T00:21:10.458Z,-2.81
2023-01-19T00:22:10.459Z,-2.73
2023-01-19T00:23:10.420Z,-2.79
2023-01-19T00:24:10.404Z,-2.85
2023-01-19T00:25:10.424Z,-2.85
2023-01-19T00:26:10.382Z,-2.74
2023-01-19T00:27:10.439Z,-2.77
2023-01-19T00:28:10.470Z,-2.74
2023-01-19T00:29:11.457Z,-2.74
2023-01-19T00:30:10.376Z,-2.84
2023-01-19T00:31:10.390Z,-2.82
2023-01-19T00:32:10.355Z,-2.85
2023-01-19T00:33:10.352Z,-2.84
2023-01-19T00:34:10.521Z,-2.71
2023-01-19T00:35:10.298Z,-2.77
2023-01-19T00:36:10.273Z,-2.79
2023-01-19T00:37:10.303Z,-2.70
2023-01-19T00:38:10.275Z,-2.66
2023-01-19T00:39:10.250Z,-2.70
2023-01-19T00:40:10.255Z,-2.70
2023-01-19T00:41:10.225Z,-2.82
2023-01-19T00:42:10.279Z,-2.85
2023-01-19T00:43:10.227Z,-2.89
2023-01-19T00:44:10.218Z,-2.82
2023-01-19T00:45:10.179Z,-2.88
2023-01-19T00:46:10.221Z,-2.78
2023-01-19T00:47:10.156Z,-2.79
2023-01-19T00:48:10.163Z,-2.79
2023-01-19T00:49:10.174Z,-2.85
2023-01-19T00:50:10.232Z,-2.89
2023-01-19T00:51:10.107Z,-2.86
2023-01-19T00:52:10.136Z,-2.77
2023-01-19T00:53:10.089Z,-2.78
2023-01-19T00:54:10.138Z,-2.71
2023-01-19T00:55:10.078Z,-2.71
2023-01-19T00:56:10.078Z,-2.63
2023-01-19T00:57:10.040Z,-2.61
2023-01-19T00:58:10.045Z,-2.67
2023-01-19T00:59:10.036Z,-2.67
2023-01-19T01:00:10.068Z,-2.52
2023-01-19T01:01:10.077Z,-2.60
2023-01-19T01:02:10.171Z,-2.46
2023-01-19T01:03:10.065Z,-2.50
2023-01-19T01:04:10.130Z,-2.49
2023-01-19T01:05:09.967Z,-2.48
2023-01-19T01:06:10.236Z,-2.45
2023-01-19T01:07:10.193Z,-2.26
2023-01-19T01:08:09.933Z,-2.42
2023-01-19T01:09:09.926Z,-2.40
2023-01-19T01:10:09.924Z,-2.29
2023-01-19T01:11:10.896Z,-2.29
2023-01-19T01:12:09.874Z,-2.26
2023-01-19T01:13:21.070Z,-2.27
2023-01-19T01:14:09.952Z,-2.29
2023-01-19T01:15:09.885Z,-2.24
2023-01-19T01:16:09.857Z,-2.15
2023-01-19T01:17:09.856Z,-2.24
2023-01-19T01:18:09.812Z,-2.16
2023-01-19T01:19:09.792Z,-2.18
2023-01-19T01:20:10.864Z,-2.16
2023-01-19T01:21:09.783Z,-2.16
2023-01-19T01:22:09.769Z,-2.21
2023-01-19T01:23:09.782Z,-2.30
2023-01-19T01:24:09.812Z,-2.27
2023-01-19T01:25:09.725Z,-2.27
2023-01-19T01:26:09.752Z,-2.27
2023-01-19T01:27:09.689Z,-2.26
2023-01-19T01:28:10.700Z,-2.39
2023-01-19T01:29:09.690Z,-2.43
2023-01-19T01:30:09.695Z,-2.35
2023-01-19T01:31:09.732Z,-2.29
2023-01-19T01:32:09.636Z,-2.30
2023-01-19T01:33:09.634Z,-2.40
2023-01-19T01:34:09.656Z,-2.46
2023-01-19T01:35:09.600Z,-2.46
2023-01-19T01:36:09.639Z,-2.49
2023-01-19T01:37:09.599Z,-2.48
2023-01-19T01:38:09.589Z,-2.50
2023-01-19T01:39:09.580Z,-2.55
2023-01-19T01:40:09.555Z,-2.61
2023-01-19T01:41:09.546Z,-2.52
2023-01-19T01:42:09.575Z,-2.50
2023-01-19T01:43:09.521Z,-2.60
2023-01-19T01:44:09.537Z,-2.53
2023-01-19T01:45:09.505Z,-2.60
2023-01-19T01:46:09.567Z,-2.49
2023-01-19T01:47:09.553Z,-2.61
2023-01-19T01:48:09.491Z,-2.60
2023-01-19T01:49:09.468Z,-2.60
2023-01-19T01:50:09.467Z,-2.60
2023-01-19T01:51:09.460Z,-2.61
2023-01-19T01:52:09.435Z,-2.63
2023-01-19T01:53:09.697Z,-2.61
2023-01-19T01:54:09.404Z,-2.67
2023-01-19T01:55:09.407Z,-2.67
2023-01-19T01:56:09.422Z,-2.56
2023-01-19T01:57:09.402Z,-2.55
2023-01-19T01:58:09.384Z,-2.48
2023-01-19T01:59:09.381Z,-2.46
2023-01-19T02:00:09.327Z,-2.46
2023-01-19T02:01:09.420Z,-2.50
2023-01-19T02:02:09.344Z,-2.37
2023-01-19T02:03:09.379Z,-2.46
2023-01-19T02:04:09.303Z,-2.49
2023-01-19T02:05:09.325Z,-2.39
2023-01-19T02:06:09.287Z,-2.32
2023-01-19T02:07:09.271Z,-2.26
2023-01-19T02:08:09.294Z,-2.45
2023-01-19T02:09:09.262Z,-2.40
2023-01-19T02:10:09.264Z,-2.32
2023-01-19T02:11:09.255Z,-2.34
2023-01-19T02:12:09.235Z,-2.24
2023-01-19T02:13:09.213Z,-2.39
2023-01-19T02:14:09.212Z,-2.37
2023-01-19T02:15:09.185Z,-2.48
2023-01-19T02:16:09.165Z,-2.46
2023-01-19T02:17:09.152Z,-2.68
2023-01-19T02:18:09.160Z,-2.43
2023-01-19T02:19:09.514Z,-2.40
2023-01-19T02:20:09.111Z,-2.34
2023-01-19T02:21:09.154Z,-2.52
2023-01-19T02:22:09.135Z,-2.48
2023-01-19T02:23:09.093Z,-2.60
2023-01-19T02:24:09.149Z,-2.60
2023-01-19T02:25:09.085Z,-2.56
2023-01-19T02:26:09.097Z,-2.58
2023-01-19T02:27:09.068Z,-2.64
2023-01-19T02:28:09.355Z,-2.60
2023-01-19T02:29:09.027Z,-2.61
2023-01-19T02:30:09.034Z,-2.70
2023-01-19T02:31:09.016Z,-2.64
2023-01-19T02:32:09.012Z,-2.55
2023-01-19T02:33:08.998Z,-2.58
2023-01-19T02:34:09.953Z,-2.63
2023-01-19T02:35:08.975Z,-2.56
2023-01-19T02:36:08.961Z,-2.64
2023-01-19T02:37:08.952Z,-2.70
2023-01-19T02:38:08.914Z,-2.53
2023-01-19T02:39:08.955Z,-2.52
2023-01-19T02:40:08.942Z,-2.53
2023-01-19T02:41:08.892Z,-2.55
2023-01-19T02:42:08.877Z,-2.55
2023-01-19T02:43:08.875Z,-2.53
2023-01-19T02:44:09.219Z,-2.45
2023-01-19T02:45:08.892Z,-2.50
2023-01-19T02:46:08.934Z,-2.49
2023-01-19T02:47:08.819Z,-2.49
2023-01-19T02:48:08.858Z,-2.46
2023-01-19T02:49:08.796Z,-2.40
2023-01-19T02:50:08.803Z,-2.42
2023-01-19T02:51:08.835Z,-2.43
2023-01-19T02:52:09.786Z,-2.40
2023-01-19T02:53:09.506Z,-2.45
2023-01-19T02:54:09.381Z,-2.46
2023-01-19T02:55:08.754Z,-2.43
2023-01-19T02:56:10.267Z,-2.39
2023-01-19T02:57:08.707Z,-2.45
2023-01-19T02:58:08.730Z,-2.42
2023-01-19T02:59:10.220Z,-2.43
2023-01-19T03:00:08.674Z,-2.50
2023-01-19T03:01:08.842Z,-2.50
2023-01-19T03:02:08.797Z,-2.53
2023-01-19T03:03:08.731Z,-2.49
2023-01-19T03:04:08.635Z,-2.43
2023-01-19T03:05:08.634Z,-2.40
2023-01-19T03:06:08.637Z,-2.42
2023-01-19T03:07:08.623Z,-2.35
2023-01-19T03:08:08.635Z,-2.30
2023-01-19T03:09:08.597Z,-2.30
2023-01-19T03:10:08.550Z,-2.21
2023-01-19T03:11:08.586Z,-2.24
2023-01-19T03:12:08.560Z,-2.15
2023-01-19T03:13:08.561Z,-2.21
2023-01-19T03:14:09.194Z,-2.15
2023-01-19T03:15:08.515Z,-2.09
2023-01-19T03:16:08.599Z,-2.13
2023-01-19T03:17:08.502Z,-2.16
2023-01-19T03:18:08.514Z,-2.18
2023-01-19T03:19:08.469Z,-2.16
2023-01-19T03:20:08.457Z,-2.15
2023-01-19T03:21:08.472Z,-2.18
2023-01-19T03:22:08.445Z,-2.20
2023-01-19T03:23:09.021Z,-2.05
2023-01-19T03:24:08.451Z,-2.15
2023-01-19T03:25:08.411Z,-2.03
2023-01-19T03:26:08.418Z,-2.12
2023-01-19T03:27:08.424Z,-2.21
2023-01-19T03:28:08.366Z,-2.13
2023-01-19T03:29:08.349Z,-2.15
2023-01-19T03:30:08.374Z,-2.03
2023-01-19T03:31:08.471Z,-2.26
2023-01-19T03:32:08.350Z,-2.06
2023-01-19T03:33:08.296Z,-2.05
2023-01-19T03:34:08.322Z,-2.10
2023-01-19T03:35:08.279Z,-2.08
2023-01-19T03:36:08.419Z,-2.09
2023-01-19T03:37:08.278Z,-2.05
2023-01-19T03:38:08.243Z,-2.16
2023-01-19T03:39:08.279Z,-2.03
2023-01-19T03:40:08.237Z,-2.10
2023-01-19T03:41:08.259Z,-2.06
2023-01-19T03:42:09.243Z,-2.15
2023-01-19T03:43:08.198Z,-2.12
2023-01-19T03:44:08.202Z,-2.06
2023-01-19T03:45:08.219Z,-2.10
2023-01-19T03:46:08.209Z,-2.13
2023-01-19T03:47:09.167Z,-2.09
2023-01-19T03:48:08.144Z,-2.03
2023-01-19T03:49:08.123Z,-2.12
2023-01-19T03:50:08.144Z,-2.12
2023-01-19T03:51:08.131Z,-2.18
2023-01-19T03:52:08.130Z,-2.15
2023-01-19T03:53:08.102Z,-2.13
2023-01-19T03:54:08.074Z,-2.16
2023-01-19T03:55:08.062Z,-2.21
2023-01-19T03:56:08.053Z,-2.21
2023-01-19T03:57:08.079Z,-2.18
2023-01-19T03:58:08.109Z,-2.30
2023-01-19T03:59:08.007Z,-2.37
2023-01-19T04:00:08.071Z,-2.46
2023-01-19T04:01:08.062Z,-2.48
2023-01-19T04:02:08.039Z,-2.40
2023-01-19T04:03:08.037Z,-2.46
2023-01-19T04:04:07.968Z,-2.43
2023-01-19T04:05:07.943Z,-2.40
2023-01-19T04:06:08.263Z,-2.43
2023-01-19T04:07:07.935Z,-2.39
2023-01-19T04:08:08.717Z,-2.43
2023-01-19T04:09:07.947Z,-2.35
2023-01-19T04:10:07.940Z,-2.34
2023-01-19T04:11:07.883Z,-2.37
2023-01-19T04:12:07.880Z,-2.34
2023-01-19T04:13:07.891Z,-2.42
2023-01-19T04:14:07.876Z,-2.24
2023-01-19T04:15:07.872Z,-2.20
2023-01-19T04:16:07.878Z,-2.30
2023-01-19T04:17:07.837Z,-2.23
2023-01-19T04:18:07.807Z,-2.24
2023-01-19T04:19:07.859Z,-2.26
2023-01-19T04:20:07.797Z,-2.21
2023-01-19T04:21:07.776Z,-2.23
2023-01-19T04:22:07.766Z,-2.21
2023-01-19T04:23:07.755Z,-2.21
2023-01-19T04:24:07.767Z,-2.20
2023-01-19T04:25:07.725Z,-2.16
2023-01-19T04:26:07.712Z,-2.27
2023-01-19T04:27:07.700Z,-2.29
2023-01-19T04:28:07.690Z,-2.34
2023-01-19T04:29:07.694Z,-2.29
2023-01-19T04:30:07.712Z,-2.29
2023-01-19T04:31:07.724Z,-2.32
2023-01-19T04:32:07.658Z,-2.27
2023-01-19T04:33:07.631Z,-2.37
2023-01-19T04:34:07.670Z,-2.32
2023-01-19T04:35:07.678Z,-2.37
2023-01-19T04:36:07.623Z,-2.49
2023-01-19T04:37:07.603Z,-2.45
2023-01-19T04:38:07.568Z,-2.49
2023-01-19T04:39:07.595Z,-2.45
2023-01-19T04:40:07.572Z,-2.43
2023-01-19T04:41:07.608Z,-2.43
2023-01-19T04:42:07.559Z,-2.37
2023-01-19T04:43:07.523Z,-2.23
2023-01-19T04:44:07.517Z,-2.23
2023-01-19T04:45:07.519Z,-2.24
2023-01-19T04:46:07.597Z,-2.24
2023-01-19T04:47:07.488Z,-2.23
2023-01-19T04:48:07.503Z,-2.21
2023-01-19T04:49:07.474Z,-2.20
2023-01-19T04:50:07.448Z,-2.13
2023-01-19T04:51:07.442Z,-2.16
2023-01-19T04:52:07.478Z,-2.23
2023-01-19T04:53:07.415Z,-2.18
2023-01-19T04:54:07.421Z,-2.15
2023-01-19T04:55:07.418Z,-2.18
2023-01-19T04:56:07.411Z,-2.09
2023-01-19T04:57:07.438Z,-2.20
2023-01-19T04:58:07.379Z,-2.26
2023-01-19T04:59:07.391Z,-2.32
2023-01-19T05:00:07.352Z,-2.23
2023-01-19T05:01:07.353Z,-2.40
2023-01-19T05:02:07.346Z,-2.21
2023-01-19T05:03:07.451Z,-2.35
2023-01-19T05:04:07.299Z,-2.40
2023-01-19T05:05:07.306Z,-2.37
2023-01-19T05:06:07.313Z,-2.48
2023-01-19T05:07:07.268Z,-2.42
2023-01-19T05:08:07.276Z,-2.43
2023-01-19T05:09:07.249Z,-2.46
2023-01-19T05:10:07.233Z,-2.43
2023-01-19T05:11:07.209Z,-2.39
2023-01-19T05:12:08.232Z,-2.40
2023-01-19T05:13:07.309Z,-2.43
2023-01-19T05:14:07.220Z,-2.23
2023-01-19T05:15:07.188Z,-2.26
2023-01-19T05:16:07.225Z,-2.23
2023-01-19T05:17:07.152Z,-2.32
2023-01-19T05:18:07.156Z,-2.23
2023-01-19T05:19:07.141Z,-2.27
2023-01-19T05:20:08.134Z,-2.21
2023-01-19T05:21:07.106Z,-2.18
2023-01-19T05:22:07.144Z,-2.20
2023-01-19T05:23:07.090Z,-2.12
2023-01-19T05:24:07.186Z,-2.09
2023-01-19T05:25:07.074Z,-2.16
2023-01-19T05:26:08.874Z,-2.09
2023-01-19T05:27:07.061Z,-2.10
2023-01-19T05:28:07.038Z,-2.08
2023-01-19T05:29:07.063Z,-2.10
2023-01-19T05:30:07.010Z,-2.06
2023-01-19T05:31:07.152Z,-2.13
2023-01-19T05:32:07.072Z,-2.03
2023-01-19T05:33:06.985Z,-2.09
2023-01-19T05:34:07.032Z,-2.08
2023-01-19T05:35:06.976Z,-2.12
2023-01-19T05:36:06.936Z,-2.12
2023-01-19T05:37:06.916Z,-2.05
2023-01-19T05:38:06.930Z,-2.06
2023-01-19T05:39:06.899Z,-1.98
2023-01-19T05:40:06.954Z,-2.09
2023-01-19T05:41:06.895Z,-1.97
2023-01-19T05:42:06.876Z,-2.09
2023-01-19T05:43:06.882Z,-2.05
2023-01-19T05:44:06.892Z,-2.10
2023-01-19T05:45:06.898Z,-2.08
2023-01-19T05:46:06.958Z,-2.02
2023-01-19T05:47:06.820Z,-2.06
2023-01-19T05:48:08.224Z,-2.03
2023-01-19T05:49:06.813Z,-2.06
2023-01-19T05:50:06.790Z,-2.10
2023-01-19T05:51:06.808Z,-2.05
2023-01-19T05:52:06.780Z,-2.08
2023-01-19T05:53:06.755Z,-2.10
2023-01-19T05:54:06.746Z,-2.21
2023-01-19T05:55:06.762Z,-2.13
2023-01-19T05:56:06.771Z,-2.16
2023-01-19T05:57:06.754Z,-2.18
2023-01-19T05:58:06.715Z,-2.10
2023-01-19T05:59:06.672Z,-2.09
2023-01-19T06:00:06.681Z,-2.06
2023-01-19T06:01:06.781Z,-2.16
2023-01-19T06:02:06.802Z,-2.10
2023-01-19T06:03:06.726Z,-2.10
2023-01-19T06:04:06.673Z,-2.18
2023-01-19T06:05:06.615Z,-2.13
2023-01-19T06:06:06.619Z,-2.30
2023-01-19T06:07:06.672Z,-2.21
2023-01-19T06:08:06.994Z,-2.34
2023-01-19T06:09:06.581Z,-2.32
2023-01-19T06:10:06.576Z,-2.34
2023-01-19T06:11:06.540Z,-2.27
2023-01-19T06:12:06.685Z,-2.27
2023-01-19T06:13:06.561Z,-2.40
2023-01-19T06:14:06.560Z,-2.45
2023-01-19T06:15:06.895Z,-2.42
2023-01-19T06:16:06.593Z,-2.35
2023-01-19T06:17:07.136Z,-2.37
2023-01-19T06:18:06.528Z,-2.35
2023-01-19T06:19:06.495Z,-2.42
2023-01-19T06:20:06.465Z,-2.46
2023-01-19T06:21:06.456Z,-2.43
2023-01-19T06:22:06.449Z,-2.46
2023-01-19T06:23:06.463Z,-2.45
2023-01-19T06:24:06.420Z,-2.49
2023-01-19T06:25:06.397Z,-2.42
2023-01-19T06:26:06.416Z,-2.40
2023-01-19T06:27:06.443Z,-2.42
2023-01-19T06:28:06.387Z,-2.40
2023-01-19T06:29:06.392Z,-2.46
2023-01-19T06:30:06.332Z,-2.42
2023-01-19T06:31:06.398Z,-2.40
2023-01-19T06:32:06.386Z,-2.43
2023-01-19T06:33:06.315Z,-2.46
2023-01-19T06:34:06.297Z,-2.40
2023-01-19T06:35:06.331Z,-2.45
2023-01-19T06:36:06.274Z,-2.45
2023-01-19T06:37:06.309Z,-2.42
2023-01-19T06:38:06.309Z,-2.45
2023-01-19T06:39:06.241Z,-2.45
2023-01-19T06:40:06.235Z,-2.42
2023-01-19T06:41:06.246Z,-2.43
2023-01-19T06:42:06.240Z,-2.43
2023-01-19T06:43:06.221Z,-2.39
2023-01-19T06:44:06.221Z,-2.40
2023-01-19T06:45:06.195Z,-2.39
2023-01-19T06:46:06.235Z,-2.32
2023-01-19T06:47:15.010Z,-2.35
2023-01-19T06:48:07.198Z,-2.34
2023-01-19T06:49:06.161Z,-2.39
2023-01-19T06:50:06.134Z,-2.15
2023-01-19T06:51:06.112Z,-2.21
2023-01-19T06:52:06.126Z,-2.13
2023-01-19T06:53:06.118Z,-2.16
2023-01-19T06:54:06.093Z,-2.16
2023-01-19T06:55:06.102Z,-2.08
2023-01-19T06:56:06.071Z,-2.05
2023-01-19T06:57:06.049Z,-2.12
2023-01-19T06:58:06.095Z,-2.10
2023-01-19T06:59:06.034Z,-2.03
2023-01-19T07:00:06.029Z,-2.10
2023-01-19T07:01:06.129Z,-1.98
2023-01-19T07:02:06.068Z,-2.10
2023-01-19T07:03:06.784Z,-2.06
2023-01-19T07:04:06.011Z,-2.02
2023-01-19T07:05:05.964Z,-2.00
2023-01-19T07:06:05.967Z,-2.03
2023-01-19T07:07:05.942Z,-2.00
2023-01-19T07:08:05.935Z,-2.02
2023-01-19T07:09:05.978Z,-2.06
2023-01-19T07:10:05.929Z,-2.02
2023-01-19T07:11:24.857Z,-2.05
2023-01-19T07:12:07.892Z,-1.95
2023-01-19T07:13:05.879Z,-2.09
2023-01-19T07:14:05.948Z,-2.06
2023-01-19T07:15:05.884Z,-2.09
2023-01-19T07:16:07.339Z,-2.10
2023-01-19T07:17:05.865Z,-2.05
2023-01-19T07:18:05.840Z,-1.95
2023-01-19T07:19:05.830Z,-2.00
2023-01-19T07:20:05.845Z,-2.02
2023-01-19T07:21:05.832Z,-2.03
2023-01-19T07:22:06.283Z,-2.02
2023-01-19T07:23:05.797Z,-1.92
2023-01-19T07:24:05.767Z,-1.94
2023-01-19T07:25:05.840Z,-2.02
2023-01-19T07:26:05.763Z,-2.10
2023-01-19T07:27:05.734Z,-1.97
2023-01-19T07:28:05.744Z,-1.97
2023-01-19T07:29:05.719Z,-1.95
2023-01-19T07:30:05.791Z,-1.92
2023-01-19T07:31:05.779Z,-2.03
2023-01-19T07:32:05.689Z,-2.03
2023-01-19T07:33:05.666Z,-2.00
2023-01-19T07:34:05.702Z,-1.90
2023-01-19T07:35:05.637Z,-2.05
2023-01-19T07:36:05.703Z,-2.06
2023-01-19T07:37:05.627Z,-2.06
2023-01-19T07:38:05.709Z,-1.97
2023-01-19T07:39:05.671Z,-1.94
2023-01-19T07:40:05.585Z,-2.00
2023-01-19T07:41:05.668Z,-1.91
2023-01-19T07:42:05.568Z,-1.91
2023-01-19T07:43:05.555Z,-1.90
2023-01-19T07:44:05.608Z,-1.82
2023-01-19T07:45:05.547Z,-1.90
2023-01-19T07:46:05.584Z,-1.82
2023-01-19T07:47:05.539Z,-1.87
2023-01-19T07:48:05.499Z,-1.85
2023-01-19T07:49:05.484Z,-1.84
2023-01-19T07:50:05.530Z,-1.69
2023-01-19T07:51:05.573Z,-1.74
2023-01-19T07:52:05.535Z,-1.64
2023-01-19T07:53:05.470Z,-1.73
2023-01-19T07:54:05.475Z,-1.67
2023-01-19T07:55:05.447Z,-1.64
2023-01-19T07:56:05.406Z,-1.76
2023-01-19T07:57:05.459Z,-1.74
2023-01-19T07:58:05.401Z,-1.59
2023-01-19T07:59:05.425Z,-1.69
2023-01-19T08:00:05.370Z,-1.54
2023-01-19T08:01:05.424Z,-1.54
2023-01-19T08:02:05.519Z,-1.52
2023-01-19T08:03:05.543Z,-1.51
2023-01-19T08:04:05.360Z,-1.45
2023-01-19T08:05:05.308Z,-1.37
2023-01-19T08:06:05.339Z,-1.51
2023-01-19T08:07:05.332Z,-1.48
2023-01-19T08:08:05.299Z,-1.46
2023-01-19T08:09:05.270Z,-1.52
2023-01-19T08:10:05.242Z,-1.48
2023-01-19T08:11:05.245Z,-1.58
2023-01-19T08:12:05.353Z,-1.70
2023-01-19T08:13:05.225Z,-1.58
2023-01-19T08:14:07.776Z,-1.58
2023-01-19T08:15:06.410Z,-1.52
2023-01-19T08:16:05.257Z,-1.49
2023-01-19T08:17:05.187Z,-1.52
2023-01-19T08:18:05.185Z,-1.55
2023-01-19T08:19:05.185Z,-1.54
2023-01-19T08:20:05.151Z,-1.52
2023-01-19T08:21:05.124Z,-1.55
2023-01-19T08:22:05.121Z,-1.51
2023-01-19T08:23:05.231Z,-1.58
2023-01-19T08:24:05.280Z,-1.43
2023-01-19T08:25:05.098Z,-1.52
2023-01-19T08:26:05.081Z,-1.45
2023-01-19T08:27:05.114Z,-1.58
2023-01-19T08:28:05.034Z,-1.40
2023-01-19T08:29:05.060Z,-1.35
2023-01-19T08:30:05.102Z,-1.45
2023-01-19T08:31:18.492Z,-1.43
2023-01-19T08:32:06.137Z,-1.33
2023-01-19T08:33:05.056Z,-1.37
2023-01-19T08:34:04.979Z,-1.43
2023-01-19T08:35:05.013Z,-1.46
2023-01-19T08:36:04.983Z,-1.35
2023-01-19T08:37:04.933Z,-1.31
2023-01-19T08:38:04.938Z,-1.30
2023-01-19T08:39:04.919Z,-1.35
2023-01-19T08:40:04.928Z,-1.22
2023-01-19T08:41:04.922Z,-1.23
2023-01-19T08:42:04.912Z,-1.23
2023-01-19T08:43:04.876Z,-1.15
2023-01-19T08:44:04.864Z,-1.23
2023-01-19T08:45:04.876Z,-1.20
2023-01-19T08:46:04.896Z,-1.30
2023-01-19T08:47:04.864Z,-1.20
2023-01-19T08:48:04.877Z,-1.17
2023-01-19T08:49:04.829Z,-1.19
2023-01-19T08:50:04.805Z,-1.12
2023-01-19T08:51:04.841Z,-1.10
2023-01-19T08:52:04.771Z,-1.13
2023-01-19T08:53:04.796Z,-1.02
2023-01-19T08:54:04.763Z,-1.01
2023-01-19T08:55:04.730Z,-0.99
2023-01-19T08:56:04.767Z,-1.07
2023-01-19T08:57:04.787Z,-0.92
2023-01-19T08:58:04.764Z,-0.97
2023-01-19T08:59:09.843Z,-1.01
2023-01-19T09:00:05.679Z,-1.02
2023-01-19T09:01:04.696Z,-0.98
2023-01-19T09:02:04.869Z,-1.01
2023-01-19T09:03:05.226Z,-1.01
2023-01-19T09:04:04.646Z,-1.02
2023-01-19T09:05:04.675Z,-0.97
2023-01-19T09:06:04.630Z,-0.91
2023-01-19T09:08:04.631Z,-1.04
2023-01-19T09:09:04.590Z,-1.02
2023-01-19T09:10:04.625Z,-1.02
2023-01-19T09:11:04.637Z,-0.95
2023-01-19T09:12:04.559Z,-0.92
2023-01-19T09:13:04.580Z,-1.05
2023-01-19T09:14:04.571Z,-0.99
2023-01-19T09:15:04.538Z,-0.98
2023-01-19T09:16:05.637Z,-0.99
2023-01-19T09:17:04.509Z,-1.04
2023-01-19T09:18:04.531Z,-1.12
2023-01-19T09:19:04.520Z,-1.15
2023-01-19T09:20:04.513Z,-1.15
2023-01-19T09:21:04.469Z,-1.12
2023-01-19T09:22:04.447Z,-1.10
2023-01-19T09:23:04.460Z,-1.10
2023-01-19T09:24:04.493Z,-1.02
2023-01-19T09:25:04.423Z,-1.02
2023-01-19T09:26:04.421Z,-1.10
2023-01-19T09:27:04.440Z,-1.12
2023-01-19T09:28:04.387Z,-1.09
2023-01-19T09:29:04.432Z,-1.31
2023-01-19T09:30:04.378Z,-1.15
2023-01-19T09:31:04.480Z,-1.13
2023-01-19T09:32:04.336Z,-1.19
2023-01-19T09:33:04.508Z,-1.15
2023-01-19T09:34:04.329Z,-1.09
2023-01-19T09:35:04.320Z,-1.02
2023-01-19T09:36:04.312Z,-0.95
2023-01-19T09:37:04.282Z,-0.95
2023-01-19T09:38:04.351Z,-0.98
2023-01-19T09:39:04.264Z,-0.86
2023-01-19T09:40:04.327Z,-0.97
2023-01-19T09:41:04.268Z,-0.82
2023-01-19T09:42:04.233Z,-0.82
2023-01-19T09:43:04.239Z,-0.82
2023-01-19T09:44:04.207Z,-0.75
2023-01-19T09:45:05.270Z,-0.70
2023-01-19T09:46:04.273Z,-0.78
2023-01-19T09:47:04.199Z,-0.72
2023-01-19T09:48:04.170Z,-0.67
2023-01-19T09:49:04.179Z,-0.70
2023-01-19T09:50:04.166Z,-0.75
2023-01-19T09:51:04.141Z,-0.70
2023-01-19T09:52:04.134Z,-0.61
2023-01-19T09:53:04.111Z,-0.72
2023-01-19T09:54:04.130Z,-0.64
2023-01-19T09:55:04.099Z,-0.60
2023-01-19T09:56:04.104Z,-0.69
2023-01-19T09:57:04.482Z,-0.70
2023-01-19T09:58:04.294Z,-0.58
2023-01-19T09:59:04.045Z,-0.60
2023-01-19T10:00:04.041Z,-0.75
2023-01-19T10:01:04.210Z,-0.70
2023-01-19T10:02:03.994Z,-0.75
2023-01-19T10:03:04.304Z,-0.72
2023-01-19T10:04:03.983Z,-0.67
2023-01-19T10:05:03.952Z,-0.72
2023-01-19T10:06:04.357Z,-0.79
2023-01-19T10:07:03.941Z,-0.78
2023-01-19T10:08:03.989Z,-0.78
2023-01-19T10:09:03.933Z,-0.76
2023-01-19T10:10:03.927Z,-0.82
2023-01-19T10:11:03.918Z,-0.80
2023-01-19T10:12:03.953Z,-0.79
2023-01-19T10:13:04.038Z,-0.89
2023-01-19T10:14:03.877Z,-0.85
2023-01-19T10:15:03.870Z,-0.67
2023-01-19T10:16:03.889Z,-0.72
2023-01-19T10:17:03.887Z,-0.83
2023-01-19T10:18:03.981Z,-0.75
2023-01-19T10:19:03.811Z,-0.67
2023-01-19T10:20:03.793Z,-0.85
2023-01-19T10:21:05.501Z,-0.85
2023-01-19T10:22:04.824Z,-0.95
2023-01-19T10:23:04.261Z,-0.85
2023-01-19T10:24:05.772Z,-0.86
2023-01-19T10:25:04.775Z,-0.97
2023-01-19T10:26:03.771Z,-0.94
2023-01-19T10:27:03.727Z,-0.98
2023-01-19T10:28:03.793Z,-1.01
2023-01-19T10:29:03.713Z,-0.92
2023-01-19T10:30:03.682Z,-0.94
2023-01-19T10:31:03.850Z,-0.78
2023-01-19T10:32:03.886Z,-0.92
2023-01-19T10:33:03.969Z,-0.79
2023-01-19T10:34:03.648Z,-0.83
2023-01-19T10:35:04.641Z,-0.95
2023-01-19T10:36:03.610Z,-0.82
2023-01-19T10:37:03.612Z,-0.85
2023-01-19T10:38:03.637Z,-0.79
2023-01-19T10:39:03.622Z,-0.78
2023-01-19T10:40:03.615Z,-0.83
2023-01-19T10:41:03.587Z,-0.83
2023-01-19T10:42:03.655Z,-0.86
2023-01-19T10:43:04.113Z,-0.89
2023-01-19T10:44:03.599Z,-0.70
2023-01-19T10:45:03.555Z,-0.72
2023-01-19T10:46:03.653Z,-0.69
2023-01-19T10:47:03.489Z,-0.57
2023-01-19T10:48:03.534Z,-0.65
2023-01-19T10:49:03.528Z,-0.61
2023-01-19T10:50:04.522Z,-0.55
2023-01-19T10:51:03.512Z,-0.60
2023-01-19T10:52:04.175Z,-0.67
2023-01-19T10:53:04.024Z,-0.67
2023-01-19T10:54:03.536Z,-0.47
2023-01-19T10:55:03.457Z,-0.51
2023-01-19T10:56:03.420Z,-0.58
2023-01-19T10:57:03.545Z,-0.34
2023-01-19T10:58:03.449Z,-0.52
2023-01-19T10:59:03.479Z,-0.46
2023-01-19T11:00:03.386Z,-0.46
2023-01-19T11:01:04.060Z,-0.52
2023-01-19T11:02:03.541Z,-0.52
2023-01-19T11:03:03.946Z,-0.62
2023-01-19T11:04:03.356Z,-0.69
2023-01-19T11:05:03.373Z,-0.64
2023-01-19T11:06:03.311Z,-0.62
2023-01-19T11:07:03.342Z,-0.75
2023-01-19T11:08:03.298Z,-0.61
2023-01-19T11:09:03.266Z,-0.55
2023-01-19T11:10:03.298Z,-0.57
2023-01-19T11:11:03.260Z,-0.58
2023-01-19T11:12:03.231Z,-0.58
2023-01-19T11:13:03.824Z,-0.52
2023-01-19T11:14:03.251Z,-0.57
2023-01-19T11:15:03.249Z,-0.46
2023-01-19T11:16:04.239Z,-0.49
2023-01-19T11:17:03.285Z,-0.52
2023-01-19T11:18:03.333Z,-0.39
2023-01-19T11:19:03.186Z,-0.39
2023-01-19T11:20:03.147Z,-0.46
2023-01-19T11:21:03.200Z,-0.40
2023-01-19T11:22:03.125Z,-0.43
2023-01-19T11:23:03.405Z,-0.47
2023-01-19T11:24:03.138Z,-0.51
2023-01-19T11:25:03.099Z,-0.39
2023-01-19T11:26:03.118Z,-0.46
2023-01-19T11:27:03.114Z,-0.40
2023-01-19T11:28:03.076Z,-0.42
2023-01-19T11:29:03.075Z,-0.43
2023-01-19T11:30:03.040Z,-0.49
2023-01-19T11:31:03.099Z,-0.37
2023-01-19T11:32:03.146Z,-0.19
2023-01-19T11:33:03.282Z,-0.37
2023-01-19T11:34:02.998Z,-0.31
2023-01-19T11:35:03.014Z,-0.29
2023-01-19T11:36:02.977Z,-0.25
2023-01-19T11:37:03.016Z,-0.19
2023-01-19T11:38:02.951Z,-0.07
2023-01-19T11:39:02.956Z,-0.08
2023-01-19T11:40:02.952Z,-0.04
2023-01-19T11:41:02.935Z,-0.11
2023-01-19T11:42:02.929Z,-0.16
2023-01-19T11:43:03.310Z,-0.15
2023-01-19T11:44:02.920Z,-0.15
2023-01-19T11:45:02.907Z,-0.18
2023-01-19T11:46:02.943Z,-0.14
2023-01-19T11:47:02.881Z,-0.19
2023-01-19T11:48:03.360Z,-0.19
2023-01-19T11:49:03.005Z,-0.22
2023-01-19T11:50:02.829Z,-0.16
2023-01-19T11:51:02.824Z,-0.11
2023-01-19T11:52:02.817Z,-0.03
2023-01-19T11:53:02.792Z,0.04
2023-01-19T11:54:02.812Z,0.11
2023-01-19T11:55:02.776Z,0.14
2023-01-19T11:56:02.791Z,0.17
2023-01-19T11:57:02.753Z,0.10
2023-01-19T11:58:03.192Z,0.17
2023-01-19T11:59:02.873Z,0.20
2023-01-19T12:00:02.730Z,0.28
2023-01-19T12:01:02.755Z,0.15
2023-01-19T12:02:02.772Z,0.23
2023-01-19T12:03:02.722Z,0.18
2023-01-19T12:04:02.681Z,0.13
2023-01-19T12:05:02.664Z,0.08
2023-01-19T12:06:02.683Z,-0.01
2023-01-19T12:07:02.686Z,0.11
2023-01-19T12:08:05.447Z,0.02
2023-01-19T12:09:03.655Z,0.10
2023-01-19T12:10:02.620Z,0.13
2023-01-19T12:11:02.609Z,0.15
2023-01-19T12:12:02.601Z,0.10
2023-01-19T12:13:02.628Z,0.21
2023-01-19T12:14:02.588Z,0.31
2023-01-19T12:15:02.555Z,0.20
2023-01-19T12:16:02.534Z,0.15
2023-01-19T12:17:02.537Z,0.08
2023-01-19T12:18:02.905Z,0.26
2023-01-19T12:19:02.518Z,0.24
2023-01-19T12:20:02.492Z,0.24
2023-01-19T12:21:04.185Z,0.18
2023-01-19T12:22:03.466Z,0.33
2023-01-19T12:23:02.444Z,0.11
2023-01-19T12:24:02.540Z,0.18
2023-01-19T12:25:02.449Z,0.21
2023-01-19T12:26:02.450Z,0.14
2023-01-19T12:27:02.419Z,-0.01
2023-01-19T12:28:02.410Z,0.03
2023-01-19T12:29:02.440Z,0.10
2023-01-19T12:30:02.423Z,0.07
2023-01-19T12:31:02.521Z,0.18
2023-01-19T12:32:02.374Z,0.18
2023-01-19T12:33:02.366Z,0.29
2023-01-19T12:34:02.398Z,0.14
2023-01-19T12:35:02.338Z,0.13
2023-01-19T12:36:02.308Z,0.24
2023-01-19T12:37:02.307Z,0.24
2023-01-19T12:38:02.288Z,0.14
2023-01-19T12:39:02.286Z,0.26
2023-01-19T12:40:02.322Z,0.24
2023-01-19T12:41:02.267Z,0.18
2023-01-19T12:42:02.274Z,0.21
2023-01-19T12:43:02.230Z,0.23
2023-01-19T12:44:02.372Z,0.24
2023-01-19T12:45:02.251Z,0.24
2023-01-19T12:46:02.202Z,0.35
2023-01-19T12:47:02.199Z,0.36
2023-01-19T12:48:02.207Z,0.36
2023-01-19T12:49:02.187Z,0.21
2023-01-19T12:50:02.145Z,0.23
2023-01-19T12:51:02.305Z,0.24
2023-01-19T12:52:02.139Z,0.39
2023-01-19T12:53:02.134Z,0.35
2023-01-19T12:54:02.164Z,0.31
2023-01-19T12:55:02.108Z,0.29